sensor_id;sensor_type;location;lat;lon;timestamp;P1;durP1;ratioP1;P2;durP2;ratioP2
74749;SDS011;63269;53.330;-6.288;2023-03-05T00:01:29;8.93;;;5.93;;
74749;SDS011;63269;53.330;-6.288;2023-03-05T00:03:57;8.45;;;6.45;;
74749;SDS011;63269;53.330;-6.288;2023-03-05T00:06:24;8.73;;;6.05;;
74749;SDS011;63269;53.330;-6.288;2023-03-05T00:08:51;6.88;;;5.80;;
74749;SDS011;63269;53.330;-6.288;2023-03-05T00:11:17;7.28;;;5.65;;
74749;SDS011;63269;53.330;-6.288;2023-03-05T00:13:44;8.13;;;5.18;;
74749;SDS011;63269;53.330;-6.288;2023-03-05T00:16:12;7.00;;;5.80;;
74749;SDS011;63269;53.330;-6.288;2023-03-05T00:18:39;8.38;;;6.50;;
74749;SDS011;63269;53.330;-6.288;2023-03-05T00:21:16;9.65;;;6.18;;
74749;SDS011;63269;53.330;-6.288;2023-03-05T00:23:42;7.50;;;5.95;;
74749;SDS011;63269;53.330;-6.288;2023-03-05T00:26:07;7.25;;;5.70;;
74749;SDS011;63269;53.330;-6.288;2023-03-05T00:28:32;8.10;;;5.55;;
74749;SDS011;63269;53.330;-6.288;2023-03-05T00:30:59;6.18;;;5.28;;
74749;SDS011;63269;53.330;-6.288;2023-03-05T00:33:25;7.28;;;5.78;;
74749;SDS011;63269;53.330;-6.288;2023-03-05T00:35:51;6.28;;;5.15;;
74749;SDS011;63269;53.330;-6.288;2023-03-05T00:38:16;7.10;;;5.75;;
74749;SDS011;63269;53.330;-6.288;2023-03-05T00:40:41;7.07;;;5.65;;
74749;SDS011;63269;53.330;-6.288;2023-03-05T00:43:07;8.88;;;5.40;;
74749;SDS011;63269;53.330;-6.288;2023-03-05T00:45:33;7.28;;;5.35;;
74749;SDS011;63269;53.330;-6.288;2023-03-05T00:47:59;6.63;;;5.47;;
74749;SDS011;63269;53.330;-6.288;2023-03-05T00:50:24;7.10;;;5.15;;
74749;SDS011;63269;53.330;-6.288;2023-03-05T00:52:50;7.93;;;5.68;;
74749;SDS011;63269;53.330;-6.288;2023-03-05T00:55:16;7.85;;;5.40;;
74749;SDS011;63269;53.330;-6.288;2023-03-05T00:57:42;7.15;;;5.05;;
74749;SDS011;63269;53.330;-6.288;2023-03-05T01:00:07;5.93;;;5.13;;
74749;SDS011;63269;53.330;-6.288;2023-03-05T01:02:33;6.88;;;5.30;;
74749;SDS011;63269;53.330;-6.288;2023-03-05T01:04:59;7.00;;;5.28;;
74749;SDS011;63269;53.330;-6.288;2023-03-05T01:07:24;6.30;;;4.90;;
74749;SDS011;63269;53.330;-6.288;2023-03-05T01:09:50;6.68;;;4.95;;
74749;SDS011;63269;53.330;-6.288;2023-03-05T01:12:15;7.03;;;5.15;;
74749;SDS011;63269;53.330;-6.288;2023-03-05T01:14:40;7.20;;;5.60;;
74749;SDS011;63269;53.330;-6.288;2023-03-05T01:17:06;7.20;;;5.10;;
74749;SDS011;63269;53.330;-6.288;2023-03-05T01:19:32;7.57;;;5.38;;
74749;SDS011;63269;53.330;-6.288;2023-03-05T01:21:57;5.65;;;4.93;;
74749;SDS011;63269;53.330;-6.288;2023-03-05T01:24:23;6.88;;;4.97;;
74749;SDS011;63269;53.330;-6.288;2023-03-05T01:26:49;6.80;;;4.95;;
74749;SDS011;63269;53.330;-6.288;2023-03-05T01:29:14;5.95;;;4.80;;
74749;SDS011;63269;53.330;-6.288;2023-03-05T01:31:40;6.28;;;5.00;;
74749;SDS011;63269;53.330;-6.288;2023-03-05T01:34:05;7.03;;;4.65;;
74749;SDS011;63269;53.330;-6.288;2023-03-05T01:36:31;6.20;;;4.65;;
74749;SDS011;63269;53.330;-6.288;2023-03-05T01:38:57;8.05;;;4.57;;
74749;SDS011;63269;53.330;-6.288;2023-03-05T01:41:22;6.47;;;5.10;;
74749;SDS011;63269;53.330;-6.288;2023-03-05T01:43:48;6.07;;;4.53;;
74749;SDS011;63269;53.330;-6.288;2023-03-05T01:54:18;6.20;;;5.35;;
74749;SDS011;63269;53.330;-6.288;2023-03-05T01:56:46;6.97;;;4.88;;
74749;SDS011;63269;53.330;-6.288;2023-03-05T01:59:14;6.03;;;4.13;;
74749;SDS011;63269;53.330;-6.288;2023-03-05T02:01:42;5.93;;;4.47;;
74749;SDS011;63269;53.330;-6.288;2023-03-05T02:04:10;6.05;;;4.35;;
74749;SDS011;63269;53.330;-6.288;2023-03-05T02:06:39;5.68;;;4.20;;
74749;SDS011;63269;53.330;-6.288;2023-03-05T02:09:06;7.22;;;4.60;;
74749;SDS011;63269;53.330;-6.288;2023-03-05T02:11:32;6.68;;;4.88;;
74749;SDS011;63269;53.330;-6.288;2023-03-05T02:13:58;5.38;;;4.30;;
74749;SDS011;63269;53.330;-6.288;2023-03-05T02:16:24;6.63;;;4.47;;
74749;SDS011;63269;53.330;-6.288;2023-03-05T02:18:50;5.85;;;4.28;;
74749;SDS011;63269;53.330;-6.288;2023-03-05T02:21:25;6.32;;;4.97;;
74749;SDS011;63269;53.330;-6.288;2023-03-05T02:23:52;5.97;;;4.45;;
74749;SDS011;63269;53.330;-6.288;2023-03-05T02:26:18;7.93;;;4.45;;
74749;SDS011;63269;53.330;-6.288;2023-03-05T02:28:44;6.95;;;4.03;;
74749;SDS011;63269;53.330;-6.288;2023-03-05T02:31:20;7.18;;;4.38;;
74749;SDS011;63269;53.330;-6.288;2023-03-05T02:33:47;5.60;;;4.68;;
74749;SDS011;63269;53.330;-6.288;2023-03-05T02:36:13;6.05;;;4.40;;
74749;SDS011;63269;53.330;-6.288;2023-03-05T02:38:40;5.88;;;4.25;;
74749;SDS011;63269;53.330;-6.288;2023-03-05T02:41:05;6.10;;;4.20;;
74749;SDS011;63269;53.330;-6.288;2023-03-05T02:43:31;6.20;;;4.15;;
74749;SDS011;63269;53.330;-6.288;2023-03-05T02:45:56;5.93;;;4.65;;
74749;SDS011;63269;53.330;-6.288;2023-03-05T02:48:22;4.50;;;3.78;;
74749;SDS011;63269;53.330;-6.288;2023-03-05T02:50:47;4.95;;;4.00;;
74749;SDS011;63269;53.330;-6.288;2023-03-05T02:53:13;5.55;;;4.35;;
74749;SDS011;63269;53.330;-6.288;2023-03-05T02:55:39;5.65;;;4.13;;
74749;SDS011;63269;53.330;-6.288;2023-03-05T02:58:04;4.50;;;3.70;;
74749;SDS011;63269;53.330;-6.288;2023-03-05T03:00:30;5.63;;;3.80;;
74749;SDS011;63269;53.330;-6.288;2023-03-05T03:02:55;6.57;;;4.00;;
74749;SDS011;63269;53.330;-6.288;2023-03-05T03:05:21;5.60;;;3.85;;
74749;SDS011;63269;53.330;-6.288;2023-03-05T03:07:46;6.55;;;4.22;;
74749;SDS011;63269;53.330;-6.288;2023-03-05T03:10:11;4.93;;;3.70;;
74749;SDS011;63269;53.330;-6.288;2023-03-05T03:12:37;5.55;;;3.70;;
74749;SDS011;63269;53.330;-6.288;2023-03-05T03:15:04;7.03;;;4.22;;
74749;SDS011;63269;53.330;-6.288;2023-03-05T03:17:33;5.45;;;3.92;;
74749;SDS011;63269;53.330;-6.288;2023-03-05T03:19:59;5.20;;;3.67;;
74749;SDS011;63269;53.330;-6.288;2023-03-05T03:22:25;4.13;;;3.17;;
74749;SDS011;63269;53.330;-6.288;2023-03-05T03:24:50;5.60;;;3.90;;
74749;SDS011;63269;53.330;-6.288;2023-03-05T03:27:16;5.40;;;3.30;;
74749;SDS011;63269;53.330;-6.288;2023-03-05T03:29:41;4.60;;;3.20;;
74749;SDS011;63269;53.330;-6.288;2023-03-05T03:32:06;5.05;;;3.53;;
74749;SDS011;63269;53.330;-6.288;2023-03-05T03:34:32;4.30;;;2.78;;
74749;SDS011;63269;53.330;-6.288;2023-03-05T03:36:58;5.75;;;3.90;;
74749;SDS011;63269;53.330;-6.288;2023-03-05T03:39:23;5.78;;;3.65;;
74749;SDS011;63269;53.330;-6.288;2023-03-05T03:41:50;5.28;;;3.35;;
74749;SDS011;63269;53.330;-6.288;2023-03-05T03:44:16;6.47;;;3.63;;
74749;SDS011;63269;53.330;-6.288;2023-03-05T03:46:43;4.60;;;3.45;;
74749;SDS011;63269;53.330;-6.288;2023-03-05T03:49:13;4.22;;;3.50;;
74749;SDS011;63269;53.330;-6.288;2023-03-05T03:51:44;4.43;;;3.38;;
74749;SDS011;63269;53.330;-6.288;2023-03-05T03:54:11;5.43;;;3.45;;
74749;SDS011;63269;53.330;-6.288;2023-03-05T03:56:37;6.13;;;3.42;;
74749;SDS011;63269;53.330;-6.288;2023-03-05T03:59:02;4.65;;;3.17;;
74749;SDS011;63269;53.330;-6.288;2023-03-05T04:01:28;4.50;;;2.90;;
74749;SDS011;63269;53.330;-6.288;2023-03-05T04:03:53;3.92;;;3.17;;
74749;SDS011;63269;53.330;-6.288;2023-03-05T04:06:19;4.32;;;3.15;;
74749;SDS011;63269;53.330;-6.288;2023-03-05T04:08:44;4.97;;;3.47;;
74749;SDS011;63269;53.330;-6.288;2023-03-05T04:11:09;5.70;;;3.70;;
74749;SDS011;63269;53.330;-6.288;2023-03-05T04:13:35;3.50;;;2.83;;
74749;SDS011;63269;53.330;-6.288;2023-03-05T04:16:00;3.70;;;2.72;;
74749;SDS011;63269;53.330;-6.288;2023-03-05T04:18:26;6.60;;;3.38;;
74749;SDS011;63269;53.330;-6.288;2023-03-05T04:20:51;5.45;;;3.55;;
74749;SDS011;63269;53.330;-6.288;2023-03-05T04:23:17;5.15;;;3.10;;
74749;SDS011;63269;53.330;-6.288;2023-03-05T04:25:42;4.32;;;3.20;;
74749;SDS011;63269;53.330;-6.288;2023-03-05T04:28:08;4.43;;;3.10;;
74749;SDS011;63269;53.330;-6.288;2023-03-05T04:30:33;3.88;;;3.05;;
74749;SDS011;63269;53.330;-6.288;2023-03-05T04:32:59;5.32;;;3.25;;
74749;SDS011;63269;53.330;-6.288;2023-03-05T04:35:24;5.05;;;3.88;;
74749;SDS011;63269;53.330;-6.288;2023-03-05T04:37:49;4.55;;;3.42;;
74749;SDS011;63269;53.330;-6.288;2023-03-05T04:40:15;3.92;;;2.90;;
74749;SDS011;63269;53.330;-6.288;2023-03-05T04:42:41;4.88;;;3.70;;
74749;SDS011;63269;53.330;-6.288;2023-03-05T04:45:07;4.05;;;3.10;;
74749;SDS011;63269;53.330;-6.288;2023-03-05T04:47:33;5.18;;;3.15;;
74749;SDS011;63269;53.330;-6.288;2023-03-05T04:49:59;5.93;;;3.60;;
74749;SDS011;63269;53.330;-6.288;2023-03-05T04:52:24;5.22;;;3.10;;
74749;SDS011;63269;53.330;-6.288;2023-03-05T04:54:50;4.65;;;3.40;;
74749;SDS011;63269;53.330;-6.288;2023-03-05T04:57:16;5.18;;;3.50;;
74749;SDS011;63269;53.330;-6.288;2023-03-05T04:59:41;5.47;;;3.47;;
74749;SDS011;63269;53.330;-6.288;2023-03-05T05:02:07;6.43;;;3.95;;
74749;SDS011;63269;53.330;-6.288;2023-03-05T05:04:32;5.10;;;3.83;;
74749;SDS011;63269;53.330;-6.288;2023-03-05T05:06:59;6.07;;;3.83;;
74749;SDS011;63269;53.330;-6.288;2023-03-05T05:09:25;5.00;;;3.75;;
74749;SDS011;63269;53.330;-6.288;2023-03-05T05:11:50;3.70;;;3.33;;
74749;SDS011;63269;53.330;-6.288;2023-03-05T05:14:16;5.97;;;4.20;;
74749;SDS011;63269;53.330;-6.288;2023-03-05T05:16:42;4.38;;;3.53;;
74749;SDS011;63269;53.330;-6.288;2023-03-05T05:19:07;4.55;;;3.50;;
74749;SDS011;63269;53.330;-6.288;2023-03-05T05:21:33;4.63;;;3.42;;
74749;SDS011;63269;53.330;-6.288;2023-03-05T05:23:58;4.18;;;3.60;;
74749;SDS011;63269;53.330;-6.288;2023-03-05T05:26:24;5.72;;;3.63;;
74749;SDS011;63269;53.330;-6.288;2023-03-05T05:28:49;5.05;;;3.88;;
74749;SDS011;63269;53.330;-6.288;2023-03-05T05:31:15;4.70;;;3.35;;
74749;SDS011;63269;53.330;-6.288;2023-03-05T05:33:41;6.78;;;3.28;;
74749;SDS011;63269;53.330;-6.288;2023-03-05T05:36:08;4.28;;;3.50;;
74749;SDS011;63269;53.330;-6.288;2023-03-05T05:38:36;4.63;;;3.53;;
74749;SDS011;63269;53.330;-6.288;2023-03-05T05:41:05;4.78;;;3.90;;
74749;SDS011;63269;53.330;-6.288;2023-03-05T05:43:35;6.53;;;4.40;;
74749;SDS011;63269;53.330;-6.288;2023-03-05T05:46:02;4.50;;;3.38;;
74749;SDS011;63269;53.330;-6.288;2023-03-05T05:48:30;4.03;;;2.75;;
74749;SDS011;63269;53.330;-6.288;2023-03-05T05:50:57;3.25;;;2.53;;
74749;SDS011;63269;53.330;-6.288;2023-03-05T05:53:23;4.10;;;3.13;;
74749;SDS011;63269;53.330;-6.288;2023-03-05T05:55:49;3.33;;;2.88;;
74749;SDS011;63269;53.330;-6.288;2023-03-05T05:58:15;4.13;;;3.22;;
74749;SDS011;63269;53.330;-6.288;2023-03-05T06:00:40;4.30;;;2.97;;
74749;SDS011;63269;53.330;-6.288;2023-03-05T06:03:06;5.18;;;3.20;;
74749;SDS011;63269;53.330;-6.288;2023-03-05T06:05:32;3.45;;;2.63;;
74749;SDS011;63269;53.330;-6.288;2023-03-05T06:07:58;4.97;;;3.42;;
74749;SDS011;63269;53.330;-6.288;2023-03-05T06:10:23;2.92;;;2.60;;
74749;SDS011;63269;53.330;-6.288;2023-03-05T06:12:49;3.35;;;2.75;;
74749;SDS011;63269;53.330;-6.288;2023-03-05T06:15:14;4.53;;;3.03;;
74749;SDS011;63269;53.330;-6.288;2023-03-05T06:17:40;3.42;;;2.97;;
74749;SDS011;63269;53.330;-6.288;2023-03-05T06:20:05;3.92;;;3.00;;
74749;SDS011;63269;53.330;-6.288;2023-03-05T06:22:34;4.13;;;2.97;;
74749;SDS011;63269;53.330;-6.288;2023-03-05T06:25:04;4.18;;;2.80;;
74749;SDS011;63269;53.330;-6.288;2023-03-05T06:27:30;4.40;;;3.00;;
74749;SDS011;63269;53.330;-6.288;2023-03-05T06:29:56;3.17;;;2.63;;
74749;SDS011;63269;53.330;-6.288;2023-03-05T06:32:21;4.22;;;2.83;;
74749;SDS011;63269;53.330;-6.288;2023-03-05T06:34:48;5.35;;;3.10;;
74749;SDS011;63269;53.330;-6.288;2023-03-05T06:37:14;3.42;;;2.65;;
74749;SDS011;63269;53.330;-6.288;2023-03-05T06:39:39;4.35;;;2.75;;
74749;SDS011;63269;53.330;-6.288;2023-03-05T06:42:05;5.40;;;3.72;;
74749;SDS011;63269;53.330;-6.288;2023-03-05T06:44:30;4.38;;;3.05;;
74749;SDS011;63269;53.330;-6.288;2023-03-05T06:46:56;3.70;;;2.90;;
74749;SDS011;63269;53.330;-6.288;2023-03-05T06:49:21;3.75;;;2.80;;
74749;SDS011;63269;53.330;-6.288;2023-03-05T06:51:47;2.88;;;2.30;;
74749;SDS011;63269;53.330;-6.288;2023-03-05T06:54:13;5.03;;;2.85;;
74749;SDS011;63269;53.330;-6.288;2023-03-05T06:56:41;4.43;;;3.22;;
74749;SDS011;63269;53.330;-6.288;2023-03-05T06:59:08;3.83;;;2.80;;
74749;SDS011;63269;53.330;-6.288;2023-03-05T07:01:35;4.05;;;2.50;;
74749;SDS011;63269;53.330;-6.288;2023-03-05T07:04:01;4.25;;;3.50;;
74749;SDS011;63269;53.330;-6.288;2023-03-05T07:06:30;5.07;;;2.90;;
74749;SDS011;63269;53.330;-6.288;2023-03-05T07:08:57;3.10;;;2.70;;
74749;SDS011;63269;53.330;-6.288;2023-03-05T07:11:25;5.40;;;2.45;;
74749;SDS011;63269;53.330;-6.288;2023-03-05T07:13:51;4.13;;;3.00;;
74749;SDS011;63269;53.330;-6.288;2023-03-05T07:16:18;3.78;;;2.92;;
74749;SDS011;63269;53.330;-6.288;2023-03-05T07:18:47;4.68;;;2.65;;
74749;SDS011;63269;53.330;-6.288;2023-03-05T07:21:17;3.50;;;2.80;;
74749;SDS011;63269;53.330;-6.288;2023-03-05T07:23:44;4.43;;;2.95;;
74749;SDS011;63269;53.330;-6.288;2023-03-05T07:26:10;3.45;;;2.95;;
74749;SDS011;63269;53.330;-6.288;2023-03-05T07:28:36;4.70;;;3.15;;
74749;SDS011;63269;53.330;-6.288;2023-03-05T07:31:02;3.35;;;2.75;;
74749;SDS011;63269;53.330;-6.288;2023-03-05T07:33:29;4.38;;;2.85;;
74749;SDS011;63269;53.330;-6.288;2023-03-05T07:35:56;4.45;;;2.88;;
74749;SDS011;63269;53.330;-6.288;2023-03-05T07:38:21;5.00;;;3.13;;
74749;SDS011;63269;53.330;-6.288;2023-03-05T07:40:47;3.83;;;2.83;;
74749;SDS011;63269;53.330;-6.288;2023-03-05T07:43:13;4.22;;;2.50;;
74749;SDS011;63269;53.330;-6.288;2023-03-05T07:45:39;5.40;;;2.45;;
74749;SDS011;63269;53.330;-6.288;2023-03-05T07:48:06;3.33;;;2.72;;
74749;SDS011;63269;53.330;-6.288;2023-03-05T07:50:33;4.53;;;2.67;;
74749;SDS011;63269;53.330;-6.288;2023-03-05T07:52:58;3.25;;;2.72;;
74749;SDS011;63269;53.330;-6.288;2023-03-05T07:55:24;4.40;;;3.03;;
74749;SDS011;63269;53.330;-6.288;2023-03-05T07:57:50;4.88;;;3.25;;
74749;SDS011;63269;53.330;-6.288;2023-03-05T08:00:16;4.68;;;3.45;;
74749;SDS011;63269;53.330;-6.288;2023-03-05T08:02:41;3.30;;;2.70;;
74749;SDS011;63269;53.330;-6.288;2023-03-05T08:05:07;3.58;;;2.95;;
74749;SDS011;63269;53.330;-6.288;2023-03-05T08:07:32;4.60;;;3.08;;
74749;SDS011;63269;53.330;-6.288;2023-03-05T08:09:58;6.03;;;2.63;;
74749;SDS011;63269;53.330;-6.288;2023-03-05T08:12:23;3.88;;;3.10;;
74749;SDS011;63269;53.330;-6.288;2023-03-05T08:14:48;5.22;;;3.20;;
74749;SDS011;63269;53.330;-6.288;2023-03-05T08:17:15;4.13;;;2.92;;
74749;SDS011;63269;53.330;-6.288;2023-03-05T08:19:41;5.10;;;2.50;;
74749;SDS011;63269;53.330;-6.288;2023-03-05T08:22:06;4.55;;;3.00;;
74749;SDS011;63269;53.330;-6.288;2023-03-05T08:24:32;3.58;;;3.00;;
74749;SDS011;63269;53.330;-6.288;2023-03-05T08:26:57;3.28;;;2.78;;
74749;SDS011;63269;53.330;-6.288;2023-03-05T08:29:23;4.05;;;2.78;;
74749;SDS011;63269;53.330;-6.288;2023-03-05T08:31:49;4.47;;;3.33;;
74749;SDS011;63269;53.330;-6.288;2023-03-05T08:34:17;3.72;;;2.95;;
74749;SDS011;63269;53.330;-6.288;2023-03-05T08:36:44;3.42;;;2.50;;
74749;SDS011;63269;53.330;-6.288;2023-03-05T08:39:10;4.68;;;2.90;;
74749;SDS011;63269;53.330;-6.288;2023-03-05T08:41:36;4.30;;;3.00;;
74749;SDS011;63269;53.330;-6.288;2023-03-05T08:44:01;3.55;;;2.63;;
74749;SDS011;63269;53.330;-6.288;2023-03-05T08:46:27;3.75;;;2.97;;
74749;SDS011;63269;53.330;-6.288;2023-03-05T08:48:53;4.43;;;3.05;;
74749;SDS011;63269;53.330;-6.288;2023-03-05T08:51:19;3.85;;;2.88;;
74749;SDS011;63269;53.330;-6.288;2023-03-05T08:53:47;4.07;;;2.80;;
74749;SDS011;63269;53.330;-6.288;2023-03-05T08:56:13;5.40;;;2.78;;
74749;SDS011;63269;53.330;-6.288;2023-03-05T08:58:39;4.15;;;2.83;;
74749;SDS011;63269;53.330;-6.288;2023-03-05T09:01:05;4.18;;;2.58;;
74749;SDS011;63269;53.330;-6.288;2023-03-05T09:03:30;3.53;;;2.75;;
74749;SDS011;63269;53.330;-6.288;2023-03-05T09:05:59;3.80;;;2.78;;
74749;SDS011;63269;53.330;-6.288;2023-03-05T09:08:26;3.45;;;2.85;;
74749;SDS011;63269;53.330;-6.288;2023-03-05T09:10:53;3.55;;;2.70;;
74749;SDS011;63269;53.330;-6.288;2023-03-05T09:13:18;4.75;;;3.22;;
74749;SDS011;63269;53.330;-6.288;2023-03-05T09:15:44;3.78;;;2.65;;
74749;SDS011;63269;53.330;-6.288;2023-03-05T09:18:09;3.67;;;2.83;;
74749;SDS011;63269;53.330;-6.288;2023-03-05T09:20:35;3.95;;;2.85;;
74749;SDS011;63269;53.330;-6.288;2023-03-05T09:23:01;3.65;;;2.65;;
74749;SDS011;63269;53.330;-6.288;2023-03-05T09:25:27;4.72;;;2.97;;
74749;SDS011;63269;53.330;-6.288;2023-03-05T09:27:52;3.88;;;2.50;;
74749;SDS011;63269;53.330;-6.288;2023-03-05T09:30:18;4.20;;;2.55;;
74749;SDS011;63269;53.330;-6.288;2023-03-05T09:32:44;3.47;;;2.80;;
74749;SDS011;63269;53.330;-6.288;2023-03-05T09:35:09;3.50;;;2.38;;
74749;SDS011;63269;53.330;-6.288;2023-03-05T09:37:35;3.58;;;2.22;;
74749;SDS011;63269;53.330;-6.288;2023-03-05T09:40:01;3.42;;;2.58;;
74749;SDS011;63269;53.330;-6.288;2023-03-05T09:56:04;3.60;;;2.50;;
74749;SDS011;63269;53.330;-6.288;2023-03-05T09:58:39;4.00;;;2.50;;
74749;SDS011;63269;53.330;-6.288;2023-03-05T10:01:08;5.20;;;2.70;;
74749;SDS011;63269;53.330;-6.288;2023-03-05T10:03:52;3.78;;;2.10;;
74749;SDS011;63269;53.330;-6.288;2023-03-05T10:11:40;4.13;;;2.97;;
74749;SDS011;63269;53.330;-6.288;2023-03-05T10:14:28;3.40;;;2.28;;
74749;SDS011;63269;53.330;-6.288;2023-03-05T10:20:06;3.20;;;2.40;;
74749;SDS011;63269;53.330;-6.288;2023-03-05T10:28:04;3.25;;;2.55;;
74749;SDS011;63269;53.330;-6.288;2023-03-05T10:44:08;3.00;;;2.28;;
74749;SDS011;63269;53.330;-6.288;2023-03-05T10:46:40;3.33;;;2.28;;
74749;SDS011;63269;53.330;-6.288;2023-03-05T10:49:19;3.78;;;2.28;;
74749;SDS011;63269;53.330;-6.288;2023-03-05T10:51:52;5.40;;;1.90;;
74749;SDS011;63269;53.330;-6.288;2023-03-05T10:57:07;3.55;;;2.50;;
74749;SDS011;63269;53.330;-6.288;2023-03-05T10:59:38;4.28;;;2.03;;
74749;SDS011;63269;53.330;-6.288;2023-03-05T11:02:10;4.05;;;2.35;;
74749;SDS011;63269;53.330;-6.288;2023-03-05T11:04:36;3.83;;;2.30;;
74749;SDS011;63269;53.330;-6.288;2023-03-05T11:07:07;4.10;;;2.10;;
74749;SDS011;63269;53.330;-6.288;2023-03-05T11:12:26;3.63;;;2.20;;
74749;SDS011;63269;53.330;-6.288;2023-03-05T11:15:22;4.15;;;2.38;;
74749;SDS011;63269;53.330;-6.288;2023-03-05T11:18:05;3.33;;;2.50;;
74749;SDS011;63269;53.330;-6.288;2023-03-05T11:20:39;3.22;;;2.45;;
74749;SDS011;63269;53.330;-6.288;2023-03-05T11:25:33;4.10;;;2.70;;
74749;SDS011;63269;53.330;-6.288;2023-03-05T11:28:00;3.88;;;2.42;;
74749;SDS011;63269;53.330;-6.288;2023-03-05T11:30:28;3.30;;;2.60;;
74749;SDS011;63269;53.330;-6.288;2023-03-05T11:33:08;3.15;;;2.65;;
74749;SDS011;63269;53.330;-6.288;2023-03-05T11:35:40;4.13;;;2.80;;
74749;SDS011;63269;53.330;-6.288;2023-03-05T11:38:14;4.80;;;3.20;;
74749;SDS011;63269;53.330;-6.288;2023-03-05T11:40:44;4.63;;;3.00;;
74749;SDS011;63269;53.330;-6.288;2023-03-05T11:43:15;5.60;;;3.22;;
74749;SDS011;63269;53.330;-6.288;2023-03-05T11:45:44;4.13;;;2.90;;
74749;SDS011;63269;53.330;-6.288;2023-03-05T11:48:12;5.20;;;2.85;;
74749;SDS011;63269;53.330;-6.288;2023-03-05T11:50:44;7.15;;;3.00;;
74749;SDS011;63269;53.330;-6.288;2023-03-05T11:53:23;3.38;;;2.72;;
74749;SDS011;63269;53.330;-6.288;2023-03-05T11:55:57;5.22;;;2.80;;
74749;SDS011;63269;53.330;-6.288;2023-03-05T12:01:16;4.25;;;2.90;;
74749;SDS011;63269;53.330;-6.288;2023-03-05T12:03:44;4.05;;;2.92;;
74749;SDS011;63269;53.330;-6.288;2023-03-05T12:06:16;7.35;;;2.75;;
74749;SDS011;63269;53.330;-6.288;2023-03-05T12:09:03;3.90;;;2.78;;
74749;SDS011;63269;53.330;-6.288;2023-03-05T12:11:37;4.28;;;3.08;;
74749;SDS011;63269;53.330;-6.288;2023-03-05T12:16:45;4.57;;;3.10;;
74749;SDS011;63269;53.330;-6.288;2023-03-05T12:21:48;5.85;;;3.00;;
74749;SDS011;63269;53.330;-6.288;2023-03-05T12:26:54;6.53;;;4.13;;
74749;SDS011;63269;53.330;-6.288;2023-03-05T12:31:58;4.88;;;3.47;;
74749;SDS011;63269;53.330;-6.288;2023-03-05T12:34:35;5.63;;;3.38;;
74749;SDS011;63269;53.330;-6.288;2023-03-05T12:37:55;4.47;;;3.33;;
74749;SDS011;63269;53.330;-6.288;2023-03-05T12:52:57;4.32;;;3.00;;
74749;SDS011;63269;53.330;-6.288;2023-03-05T12:55:36;3.20;;;2.60;;
74749;SDS011;63269;53.330;-6.288;2023-03-05T12:58:14;3.72;;;3.03;;
74749;SDS011;63269;53.330;-6.288;2023-03-05T13:03:17;5.05;;;3.42;;
74749;SDS011;63269;53.330;-6.288;2023-03-05T13:05:52;3.45;;;2.90;;
74749;SDS011;63269;53.330;-6.288;2023-03-05T13:10:53;5.97;;;3.30;;
74749;SDS011;63269;53.330;-6.288;2023-03-05T13:13:21;3.45;;;2.50;;
74749;SDS011;63269;53.330;-6.288;2023-03-05T13:15:50;4.30;;;3.05;;
74749;SDS011;63269;53.330;-6.288;2023-03-05T13:18:20;2.88;;;2.25;;
74749;SDS011;63269;53.330;-6.288;2023-03-05T13:20:56;3.97;;;2.58;;
74749;SDS011;63269;53.330;-6.288;2023-03-05T13:23:37;4.65;;;3.03;;
74749;SDS011;63269;53.330;-6.288;2023-03-05T13:26:14;3.65;;;2.72;;
74749;SDS011;63269;53.330;-6.288;2023-03-05T13:29:28;2.50;;;2.00;;
74749;SDS011;63269;53.330;-6.288;2023-03-05T13:31:35;3.88;;;3.03;;
74749;SDS011;63269;53.330;-6.288;2023-03-05T13:36:32;2.97;;;1.95;;
74749;SDS011;63269;53.330;-6.288;2023-03-05T13:38:58;3.78;;;2.40;;
74749;SDS011;63269;53.330;-6.288;2023-03-05T13:41:28;3.00;;;2.20;;
74749;SDS011;63269;53.330;-6.288;2023-03-05T13:43:55;2.33;;;2.08;;
74749;SDS011;63269;53.330;-6.288;2023-03-05T13:49:20;3.65;;;2.47;;
74749;SDS011;63269;53.330;-6.288;2023-03-05T13:51:52;2.50;;;2.03;;
74749;SDS011;63269;53.330;-6.288;2023-03-05T13:54:19;4.15;;;2.03;;
74749;SDS011;63269;53.330;-6.288;2023-03-05T13:56:50;3.78;;;2.00;;
74749;SDS011;63269;53.330;-6.288;2023-03-05T13:59:21;3.25;;;2.08;;
74749;SDS011;63269;53.330;-6.288;2023-03-05T14:01:48;3.10;;;1.88;;
74749;SDS011;63269;53.330;-6.288;2023-03-05T14:06:47;2.22;;;1.58;;
74749;SDS011;63269;53.330;-6.288;2023-03-05T14:09:30;2.92;;;2.17;;
74749;SDS011;63269;53.330;-6.288;2023-03-05T14:14:54;2.72;;;1.88;;
74749;SDS011;63269;53.330;-6.288;2023-03-05T14:19:46;2.05;;;1.60;;
74749;SDS011;63269;53.330;-6.288;2023-03-05T14:22:26;2.08;;;1.50;;
74749;SDS011;63269;53.330;-6.288;2023-03-05T14:24:53;3.33;;;1.70;;
74749;SDS011;63269;53.330;-6.288;2023-03-05T14:27:19;2.72;;;1.52;;
74749;SDS011;63269;53.330;-6.288;2023-03-05T14:29:45;2.53;;;1.40;;
74749;SDS011;63269;53.330;-6.288;2023-03-05T14:32:26;2.20;;;1.27;;
74749;SDS011;63269;53.330;-6.288;2023-03-05T14:35:00;2.22;;;1.60;;
74749;SDS011;63269;53.330;-6.288;2023-03-05T14:40:14;2.15;;;1.40;;
74749;SDS011;63269;53.330;-6.288;2023-03-05T14:45:21;2.63;;;1.52;;
74749;SDS011;63269;53.330;-6.288;2023-03-05T14:47:48;2.65;;;1.60;;
74749;SDS011;63269;53.330;-6.288;2023-03-05T14:50:19;1.58;;;1.27;;
74749;SDS011;63269;53.330;-6.288;2023-03-05T14:52:47;1.85;;;1.30;;
74749;SDS011;63269;53.330;-6.288;2023-03-05T14:55:15;2.25;;;1.58;;
74749;SDS011;63269;53.330;-6.288;2023-03-05T14:57:42;2.58;;;1.52;;
74749;SDS011;63269;53.330;-6.288;2023-03-05T15:00:13;1.80;;;1.20;;
74749;SDS011;63269;53.330;-6.288;2023-03-05T15:02:42;1.65;;;1.10;;
74749;SDS011;63269;53.330;-6.288;2023-03-05T15:05:07;2.30;;;1.17;;
74749;SDS011;63269;53.330;-6.288;2023-03-05T15:07:33;1.88;;;1.50;;
74749;SDS011;63269;53.330;-6.288;2023-03-05T15:09:58;2.25;;;1.58;;
74749;SDS011;63269;53.330;-6.288;2023-03-05T15:12:24;2.60;;;1.73;;
74749;SDS011;63269;53.330;-6.288;2023-03-05T15:14:50;1.60;;;1.00;;
74749;SDS011;63269;53.330;-6.288;2023-03-05T15:17:21;2.30;;;1.30;;
74749;SDS011;63269;53.330;-6.288;2023-03-05T15:19:58;2.00;;;0.90;;
74749;SDS011;63269;53.330;-6.288;2023-03-05T15:22:24;1.98;;;1.20;;
74749;SDS011;63269;53.330;-6.288;2023-03-05T15:24:50;2.15;;;1.30;;
74749;SDS011;63269;53.330;-6.288;2023-03-05T15:27:15;1.17;;;1.00;;
74749;SDS011;63269;53.330;-6.288;2023-03-05T15:29:40;1.90;;;1.00;;
74749;SDS011;63269;53.330;-6.288;2023-03-05T15:32:06;1.00;;;0.80;;
74749;SDS011;63269;53.330;-6.288;2023-03-05T15:34:32;1.35;;;0.93;;
74749;SDS011;63269;53.330;-6.288;2023-03-05T15:36:58;1.52;;;1.00;;
74749;SDS011;63269;53.330;-6.288;2023-03-05T15:39:24;2.15;;;0.88;;
74749;SDS011;63269;53.330;-6.288;2023-03-05T15:41:50;2.30;;;1.50;;
74749;SDS011;63269;53.330;-6.288;2023-03-05T15:44:16;3.10;;;1.10;;
74749;SDS011;63269;53.330;-6.288;2023-03-05T15:46:42;2.58;;;1.50;;
74749;SDS011;63269;53.330;-6.288;2023-03-05T15:49:07;2.50;;;1.50;;
74749;SDS011;63269;53.330;-6.288;2023-03-05T15:51:33;3.05;;;1.38;;
74749;SDS011;63269;53.330;-6.288;2023-03-05T15:53:58;2.00;;;1.30;;
74749;SDS011;63269;53.330;-6.288;2023-03-05T15:56:24;3.60;;;1.42;;
74749;SDS011;63269;53.330;-6.288;2023-03-05T15:58:49;3.67;;;1.50;;
74749;SDS011;63269;53.330;-6.288;2023-03-05T16:01:15;6.07;;;1.55;;
74749;SDS011;63269;53.330;-6.288;2023-03-05T16:03:43;4.30;;;1.70;;
74749;SDS011;63269;53.330;-6.288;2023-03-05T16:06:09;2.42;;;1.50;;
74749;SDS011;63269;53.330;-6.288;2023-03-05T16:08:36;5.43;;;1.52;;
74749;SDS011;63269;53.330;-6.288;2023-03-05T16:11:02;2.47;;;1.48;;
74749;SDS011;63269;53.330;-6.288;2023-03-05T16:13:28;4.60;;;1.40;;
74749;SDS011;63269;53.330;-6.288;2023-03-05T16:15:56;6.03;;;1.60;;
74749;SDS011;63269;53.330;-6.288;2023-03-05T16:18:22;4.38;;;1.40;;
74749;SDS011;63269;53.330;-6.288;2023-03-05T16:20:50;5.32;;;1.60;;
74749;SDS011;63269;53.330;-6.288;2023-03-05T16:23:16;5.78;;;1.58;;